Greenock, PA

6:17 AM EDT on October 01, 2016 (GMT -0400)
Mount Lebanon | | Change Station

Elev 1201 ft 40.36 °N, 80.04 °W | Updated 1 day ago

Partly Cloudy
Partly Cloudy
61 °F
Feels Like 61 °F
N
5
Wind Variable Wind from ESE
Gusts mph

Today
High -- | Low -- °F
--% Chance of Precip.
Yesterday
High -- | Low -- °F
Precip. -- in
Pressure 30.10 in
Visibility 10.0 miles
Clouds Few 6500 ft
Scattered Clouds 8000 ft
Dew Point 57 °F
Humidity 88%
Rainfall in
Snow Depth Not available.
7:16 AM 7:00 PM
New Moon, 0% visible
METAR KAGC 010953Z 11005KT 10SM FEW065 SCT080 14/12 A3008 RMK AO2 RAE15 SLP191 P0000 T01390122
Pressure 30.10 in
Visibility 10.0 miles
Clouds Few 6500 ft
Scattered Clouds 8000 ft
Dew Point 57 °F
Humidity 88%
Rainfall in
Snow Depth Not available.
7:16 AM 7:00 PM
New Moon, 0% visible
METAR KAGC 010953Z 11005KT 10SM FEW065 SCT080 14/12 A3008 RMK AO2 RAE15 SLP191 P0000 T01390122

10-Day Weather Forecast

Almanac

Astronomy

Oct. 01, 2016 Rise Set
Actual Time
Civil Twilight
Nautical Twilight
Astronomical Twilight
Moon
Length of Visible Light
Length of Day
Tomorrow will be .
, % of the Moon is Illuminated

Today's Extremes

State Highs State Lows

Community

WunderPhotos

Upload Photos

1,942,908 photos uploaded!

WunderBlog® & News

Nearby

Air Quality

  Air Quality AQ Index Pollutant
Not available.

Snow Depth

Station Depth Elevation

Earthquake Activity

City Distance Mag. Time & Date
Minimum magnitude displayed is 2.5.

Coastal Water Temperatures

Place Temperature

Stations

Nearby Weather Stations

Station Location Temp. Windchill Dew Point Humidity Wind Precip. Elev Updated Type
                   

Watches & Warnings

There are currently no watches in effect.